Time;durP1;ratioP1;P1;durP2;ratioP2;P2;SDS_P1;SDS_P2;PMS_P1;PMS_P2;Temp;Humidity;BMP_temperature;BMP_pressure;BME280_temperature;BME280_humidity;BME280_pressure;Samples;Min_cycle;Max_cycle;Signal;HPM_P1;HPM_P2
2023/01/18 00:00:41;;;;;;;0.30;0.30;;;;;;;-1.10;100.00;97902.69;5070742;28;20417;-80
2023/01/18 00:03:12;;;;;;;0.10;0.10;;;;;;;-1.13;100.00;97900.59;5070581;28;20417;-78
2023/01/18 00:05:41;;;;;;;0.97;0.90;;;;;;;-1.12;99.83;97908.34;5070669;28;20240;-77
2023/01/18 00:08:17;;;;;;;0.50;0.50;;;;;;;-0.94;99.82;97910.13;5069462;28;20928;-80
2023/01/18 00:10:43;;;;;;;0.00;0.00;;;;;;;-0.92;98.52;97912.50;5069582;28;20788;-79
2023/01/18 00:13:09;;;;;;;0.33;0.33;;;;;;;-1.09;98.99;97899.69;5070667;28;20466;-80
2023/01/18 00:15:35;;;;;;;0.00;0.00;;;;;;;-1.10;98.46;97908.03;5070759;28;20175;-80
2023/01/18 00:18:01;;;;;;;0.70;0.70;;;;;;;-1.07;98.18;97902.88;5070727;28;20183;-80
2023/01/18 00:20:28;;;;;;;0.17;0.17;;;;;;;-1.20;97.71;97899.09;5070769;28;20507;-78
2023/01/18 00:22:54;;;;;;;0.00;0.00;;;;;;;-1.41;97.90;97900.56;5070331;28;20179;-77
2023/01/18 00:25:22;;;;;;;0.47;0.47;;;;;;;-1.56;97.81;97890.94;5070126;28;20260;-80
2023/01/18 00:27:50;;;;;;;0.00;0.00;;;;;;;-1.55;98.51;97905.13;5070474;28;20541;-79
2023/01/18 00:30:19;;;;;;;0.00;0.00;;;;;;;-1.50;98.87;97895.09;5069233;28;20920;-80
2023/01/18 00:32:44;;;;;;;0.00;0.00;;;;;;;-1.39;99.84;97893.03;5070136;28;20558;-79
2023/01/18 00:35:10;;;;;;;0.00;0.00;;;;;;;-1.32;100.00;97887.28;5070570;28;20504;-79
2023/01/18 00:37:36;;;;;;;0.00;0.00;;;;;;;-1.67;100.00;97886.84;5070432;28;20205;-79
2023/01/18 00:40:03;;;;;;;0.10;0.10;;;;;;;-2.15;100.00;97880.97;5070412;28;20424;-76
2023/01/18 00:45:13;;;;;;;0.00;0.00;;;;;;;-1.81;100.00;97886.81;5070495;28;20405;-80
2023/01/18 00:47:38;;;;;;;0.00;0.00;;;;;;;-1.70;100.00;97890.13;5070324;28;20421;-80
2023/01/18 00:50:04;;;;;;;0.00;0.00;;;;;;;-1.79;100.00;97886.50;5068925;28;20630;-79
2023/01/18 00:52:30;;;;;;;0.37;0.37;;;;;;;-1.56;100.00;97890.94;5069925;28;20202;-79
2023/01/18 00:54:55;;;;;;;0.53;0.53;;;;;;;-1.74;100.00;97888.28;5069804;28;20240;-77
2023/01/18 00:57:20;;;;;;;0.43;0.43;;;;;;;-2.05;100.00;97888.81;5069966;28;20178;-78
2023/01/18 00:59:46;;;;;;;0.57;0.50;;;;;;;-2.32;100.00;97886.03;5070142;28;20205;-78
2023/01/18 01:02:12;;;;;;;0.30;0.30;;;;;;;-2.49;100.00;97875.84;5070276;28;20270;-78
2023/01/18 01:07:21;;;;;;;4.30;3.10;;;;;;;-2.66;100.00;97884.38;5078024;28;20416;-72
2023/01/18 01:09:46;;;;;;;0.87;0.87;;;;;;;-2.58;100.00;97880.28;5070835;28;20421;-73
2023/01/18 01:26:06;;;;;;;0.00;0.00;;;;;;;-2.13;100.00;97892.16;5070388;28;20396;-74
2023/01/18 01:28:48;;;;;;;0.00;0.00;;;;;;;-2.07;100.00;97901.69;5070102;28;20404;-73
2023/01/18 01:31:14;;;;;;;0.00;0.00;;;;;;;-1.99;100.00;97898.34;5070075;28;20428;-73
2023/01/18 01:33:40;;;;;;;0.00;0.00;;;;;;;-2.27;100.00;97908.16;5069854;28;20198;-73
2023/01/18 01:36:09;;;;;;;0.00;0.00;;;;;;;-2.65;100.00;97903.88;5068493;28;20198;-73
2023/01/18 01:38:34;;;;;;;0.00;0.00;;;;;;;-2.61;100.00;97902.19;5072111;28;20248;-73
2023/01/18 01:41:09;;;;;;;0.00;0.00;;;;;;;-2.35;100.00;97911.47;5073367;28;20888;-73
2023/01/18 01:43:50;;;;;;;0.33;0.33;;;;;;;-2.25;100.00;97913.19;5073079;28;20511;-73
2023/01/18 01:46:40;;;;;;;0.00;0.00;;;;;;;-2.36;100.00;97914.44;5073204;28;20413;-72
2023/01/18 01:49:23;;;;;;;0.00;0.00;;;;;;;-2.46;100.00;97910.00;5073289;28;20503;-73
2023/01/18 01:51:57;;;;;;;0.33;0.33;;;;;;;-2.55;100.00;97912.56;5073162;28;20424;-73
2023/01/18 01:54:29;;;;;;;0.20;0.20;;;;;;;-2.69;100.00;97903.66;5073190;28;20516;-72
2023/01/18 01:56:59;;;;;;;0.30;0.30;;;;;;;-2.78;100.00;97905.38;5073180;28;20453;-73
2023/01/18 01:59:24;;;;;;;0.00;0.00;;;;;;;-2.87;100.00;97909.78;5073041;28;20428;-74
2023/01/18 02:01:50;;;;;;;0.00;0.00;;;;;;;-2.90;100.00;97911.13;5072817;28;20461;-73
2023/01/18 02:04:15;;;;;;;0.00;0.00;;;;;;;-2.85;100.00;97910.28;5073156;28;20216;-74
2023/01/18 02:06:41;;;;;;;0.00;0.00;;;;;;;-3.05;100.00;97908.63;5072736;28;20292;-74
2023/01/18 02:09:10;;;;;;;0.00;0.00;;;;;;;-2.90;100.00;97910.31;5072858;28;20205;-75
2023/01/18 02:11:36;;;;;;;0.00;0.00;;;;;;;-2.70;100.00;97910.88;5072683;28;20220;-73
2023/01/18 02:14:10;;;;;;;0.00;0.00;;;;;;;-2.63;100.00;97901.69;5072514;28;20417;-74
2023/01/18 02:16:44;;;;;;;0.00;0.00;;;;;;;-2.70;100.00;97899.41;5072853;28;20410;-74
2023/01/18 02:19:16;;;;;;;0.00;0.00;;;;;;;-2.82;100.00;97905.16;5072639;28;20507;-73
2023/01/18 02:21:45;;;;;;;0.00;0.00;;;;;;;-2.93;100.00;97909.03;5072645;28;20532;-73
2023/01/18 02:24:31;;;;;;;0.00;0.00;;;;;;;-2.74;100.00;97911.75;5072591;28;20421;-74
2023/01/18 02:27:19;;;;;;;0.00;0.00;;;;;;;-2.80;100.00;97907.53;5072589;28;21013;-73
2023/01/18 02:30:09;;;;;;;0.53;0.53;;;;;;;-3.07;100.00;97913.47;5072456;28;20409;-74
2023/01/18 02:32:50;;;;;;;0.40;0.40;;;;;;;-3.14;100.00;97913.03;5072279;28;20994;-73
2023/01/18 02:35:24;;;;;;;0.30;0.30;;;;;;;-3.18;100.00;97903.97;5072471;28;20424;-72
2023/01/18 02:38:05;;;;;;;0.00;0.00;;;;;;;-3.33;100.00;97904.94;5072362;28;20416;-73
2023/01/18 02:40:58;;;;;;;0.00;0.00;;;;;;;-3.37;100.00;97911.94;5072247;28;20896;-74
2023/01/18 02:49:01;;;;;;;0.13;0.13;;;;;;;-3.23;100.00;97918.19;5072108;28;20442;-72
2023/01/18 02:51:26;;;;;;;1.30;1.30;;;;;;;-3.24;100.00;97916.59;5071895;28;20417;-73
2023/01/18 02:53:51;;;;;;;0.00;0.00;;;;;;;-3.31;100.00;97908.94;5071732;28;20468;-73
2023/01/18 02:56:24;;;;;;;0.50;0.50;;;;;;;-3.23;100.00;97912.06;5071792;28;20589;-72
2023/01/18 02:58:55;;;;;;;0.00;0.00;;;;;;;-3.23;100.00;97915.50;5072194;28;20174;-73
2023/01/18 03:01:33;;;;;;;0.23;0.23;;;;;;;-3.29;100.00;97914.00;5071835;28;20778;-74
2023/01/18 03:04:07;;;;;;;0.10;0.10;;;;;;;-3.44;100.00;97925.63;5071467;28;20478;-73
2023/01/18 03:06:33;;;;;;;0.00;0.00;;;;;;;-3.58;100.00;97921.22;5071486;28;20432;-72
2023/01/18 03:08:59;;;;;;;0.00;0.00;;;;;;;-3.43;100.00;97927.22;5071648;28;20610;-73
2023/01/18 03:11:51;;;;;;;0.00;0.00;;;;;;;-3.27;100.00;97925.19;5072252;28;20482;-73
2023/01/18 03:14:27;;;;;;;0.40;0.40;;;;;;;-3.06;100.00;97929.19;5060419;28;20222;-73
2023/01/18 03:17:06;;;;;;;2.93;2.13;;;;;;;-2.96;100.00;97935.50;5071481;28;20424;-73
2023/01/18 03:25:21;;;;;;;0.00;0.00;;;;;;;-3.36;100.00;97942.88;5071359;28;20800;-73
2023/01/18 03:36:11;;;;;;;0.00;0.00;;;;;;;-3.69;100.00;97952.53;5071132;28;20396;-73
2023/01/18 03:38:41;;;;;;;0.00;0.00;;;;;;;-3.39;100.00;97943.44;5071503;28;20734;-73
2023/01/18 03:41:08;;;;;;;0.10;0.10;;;;;;;-3.15;100.00;97946.16;5070930;28;20405;-73
2023/01/18 03:43:36;;;;;;;0.00;0.00;;;;;;;-3.06;100.00;97953.22;5070717;28;20412;-73
2023/01/18 03:46:03;;;;;;;0.17;0.17;;;;;;;-2.96;100.00;97963.03;5070728;28;20976;-73
2023/01/18 03:48:30;;;;;;;0.00;0.00;;;;;;;-2.89;100.00;97955.47;5071299;28;20828;-73
2023/01/18 03:51:14;;;;;;;0.10;0.10;;;;;;;-2.91;100.00;97960.28;5070886;28;20892;-73
2023/01/18 03:54:00;;;;;;;0.57;0.57;;;;;;;-2.92;100.00;97964.03;5070589;28;20521;-73
2023/01/18 03:56:50;;;;;;;0.40;0.40;;;;;;;-2.97;100.00;97956.09;5070844;28;20443;-72
2023/01/18 03:59:16;;;;;;;0.27;0.27;;;;;;;-3.01;100.00;97955.88;5070461;28;20523;-73
2023/01/18 04:01:43;;;;;;;0.97;0.93;;;;;;;-3.01;100.00;97966.56;5070461;28;20551;-74
2023/01/18 04:04:09;;;;;;;0.00;0.00;;;;;;;-2.93;100.00;97967.00;5070333;28;20167;-73
2023/01/18 04:06:35;;;;;;;0.00;0.00;;;;;;;-2.94;100.00;97974.22;5070354;28;20428;-74
2023/01/18 04:09:00;;;;;;;0.00;0.00;;;;;;;-2.96;100.00;97972.91;5070833;28;20179;-73
2023/01/18 04:11:25;;;;;;;0.00;0.00;;;;;;;-3.05;100.00;97976.19;5070467;28;20375;-73
2023/01/18 04:13:51;;;;;;;0.27;0.27;;;;;;;-2.97;100.00;97976.66;5070147;28;20213;-72
2023/01/18 04:16:16;;;;;;;0.07;0.07;;;;;;;-2.95;100.00;97971.81;5070536;28;20170;-73
2023/01/18 04:18:41;;;;;;;0.10;0.10;;;;;;;-3.03;100.00;97983.94;5070947;28;20689;-73
2023/01/18 04:21:06;;;;;;;9.13;1.33;;;;;;;-3.16;100.00;97981.94;5070292;28;20205;-73
2023/01/18 04:23:32;;;;;;;0.00;0.00;;;;;;;-3.31;100.00;97988.22;5070270;28;20291;-73
2023/01/18 04:25:57;;;;;;;0.27;0.27;;;;;;;-3.30;100.00;97987.16;5070523;28;20179;-73
2023/01/18 04:28:25;;;;;;;0.00;0.00;;;;;;;-3.18;100.00;97992.91;5070601;28;20183;-73
2023/01/18 04:30:52;;;;;;;0.00;0.00;;;;;;;-3.12;100.00;97986.44;5070475;28;20208;-73
2023/01/18 04:33:19;;;;;;;0.00;0.00;;;;;;;-3.41;100.00;97990.97;5070079;28;20543;-73
2023/01/18 04:35:45;;;;;;;0.00;0.00;;;;;;;-3.38;100.00;97991.22;5070775;28;20504;-73
2023/01/18 04:38:10;;;;;;;0.00;0.00;;;;;;;-3.20;100.00;97999.59;5070557;28;21039;-73
2023/01/18 04:40:35;;;;;;;0.93;0.93;;;;;;;-3.11;100.00;98000.56;5070369;28;20175;-75
2023/01/18 04:43:01;;;;;;;0.00;0.00;;;;;;;-3.05;100.00;98002.09;5068720;28;20184;-73
2023/01/18 04:45:26;;;;;;;1.90;1.80;;;;;;;-3.69;100.00;98004.00;5070234;28;20542;-73
2023/01/18 04:47:51;;;;;;;0.00;0.00;;;;;;;-3.49;100.00;98010.25;5070229;28;20170;-74
2023/01/18 04:50:17;;;;;;;0.00;0.00;;;;;;;-3.22;100.00;98010.53;5070466;28;20295;-73
2023/01/18 04:52:42;;;;;;;0.00;0.00;;;;;;;-3.23;100.00;98010.84;5070214;28;20202;-73
2023/01/18 04:55:09;;;;;;;0.07;0.07;;;;;;;-3.33;100.00;98014.38;5070389;28;20180;-73
2023/01/18 04:57:34;;;;;;;0.00;0.00;;;;;;;-3.41;100.00;98026.47;5068968;28;20714;-73
2023/01/18 05:00:01;;;;;;;0.37;0.37;;;;;;;-3.36;100.00;98023.75;5070734;28;20503;-74
2023/01/18 05:02:26;;;;;;;0.10;0.10;;;;;;;-3.34;100.00;98018.13;5070188;28;20261;-75
2023/01/18 05:04:51;;;;;;;0.00;0.00;;;;;;;-3.32;100.00;98024.81;5069910;28;20520;-73
2023/01/18 05:07:17;;;;;;;0.00;0.00;;;;;;;-3.30;100.00;98027.19;5070210;28;20181;-73
2023/01/18 05:09:42;;;;;;;0.00;0.00;;;;;;;-3.29;100.00;98039.47;5070136;28;20175;-73
2023/01/18 05:12:07;;;;;;;0.00;0.00;;;;;;;-3.28;100.00;98034.91;5071639;28;20424;-74
2023/01/18 05:14:33;;;;;;;0.00;0.00;;;;;;;-3.29;100.00;98042.13;5072821;28;20178;-73
2023/01/18 05:16:58;;;;;;;0.00;0.00;;;;;;;-3.24;100.00;98047.41;5073589;28;20171;-74
2023/01/18 05:19:29;;;;;;;0.00;0.00;;;;;;;-3.48;100.00;98047.31;5073674;28;20227;-73
2023/01/18 05:21:55;;;;;;;0.00;0.00;;;;;;;-3.83;100.00;98051.06;5073487;28;20540;-74
2023/01/18 05:24:20;;;;;;;0.67;0.67;;;;;;;-3.62;100.00;98041.03;5073524;28;20420;-73
2023/01/18 05:26:45;;;;;;;0.20;0.20;;;;;;;-3.40;100.00;98054.75;5073746;28;20175;-73
2023/01/18 05:29:11;;;;;;;0.53;0.53;;;;;;;-3.29;100.00;98055.47;5074054;28;20179;-73
2023/01/18 05:31:36;;;;;;;0.10;0.10;;;;;;;-3.30;100.00;98049.34;5073792;28;20171;-72
2023/01/18 05:34:01;;;;;;;0.00;0.00;;;;;;;-3.23;100.00;98051.66;5073641;28;20298;-73
2023/01/18 05:36:27;;;;;;;0.00;0.00;;;;;;;-3.17;100.00;98044.44;5073596;28;20401;-73
2023/01/18 05:38:53;;;;;;;0.00;0.00;;;;;;;-3.16;100.00;98051.38;5073687;28;20186;-73
2023/01/18 05:41:19;;;;;;;0.00;0.00;;;;;;;-3.10;100.00;98056.38;5072001;28;20174;-74
2023/01/18 05:43:45;;;;;;;0.27;0.27;;;;;;;-3.21;100.00;98065.53;5073265;28;20471;-74
2023/01/18 05:46:10;;;;;;;0.00;0.00;;;;;;;-3.21;100.00;98064.75;5073274;28;20741;-72
2023/01/18 05:48:35;;;;;;;0.00;0.00;;;;;;;-3.71;100.00;98058.72;5073416;28;20174;-73
2023/01/18 05:51:06;;;;;;;0.10;0.10;;;;;;;-3.98;100.00;98054.63;5073133;28;20178;-73
2023/01/18 05:53:31;;;;;;;0.00;0.00;;;;;;;-3.83;100.00;98061.72;5073095;28;20210;-73
2023/01/18 05:56:03;;;;;;;0.67;0.67;;;;;;;-3.63;100.00;98071.47;5073078;28;20424;-73
2023/01/18 05:58:29;;;;;;;0.00;0.00;;;;;;;-3.62;100.00;98073.06;5073333;28;20195;-73
2023/01/18 06:00:54;;;;;;;0.60;0.40;;;;;;;-3.62;100.00;98070.38;5073032;28;20550;-73
2023/01/18 06:03:21;;;;;;;0.00;0.00;;;;;;;-3.64;100.00;98067.19;5072739;28;20202;-73
2023/01/18 06:05:47;;;;;;;0.00;0.00;;;;;;;-3.59;100.00;98072.53;5072969;28;20186;-74
2023/01/18 06:08:13;;;;;;;0.87;0.87;;;;;;;-3.83;100.00;98074.28;5073043;28;20417;-73
2023/01/18 06:10:39;;;;;;;0.00;0.00;;;;;;;-4.04;100.00;98077.06;5072974;28;20405;-73
2023/01/18 06:13:05;;;;;;;0.13;0.13;;;;;;;-3.78;100.00;98075.03;5072561;28;20471;-73
2023/01/18 06:15:31;;;;;;;0.00;0.00;;;;;;;-3.68;100.00;98076.84;5072979;28;20171;-74
2023/01/18 06:17:57;;;;;;;0.60;0.60;;;;;;;-3.65;100.00;98078.94;5072827;28;20440;-74
2023/01/18 06:20:23;;;;;;;0.00;0.00;;;;;;;-3.58;100.00;98084.00;5071604;28;20170;-75
2023/01/18 06:22:49;;;;;;;0.00;0.00;;;;;;;-3.55;100.00;98094.91;5072292;28;20950;-74
2023/01/18 06:25:14;;;;;;;0.00;0.00;;;;;;;-3.47;100.00;98096.16;5070971;28;20170;-74
2023/01/18 06:27:40;;;;;;;0.00;0.00;;;;;;;-3.57;100.00;98090.91;5072780;28;20500;-74
2023/01/18 06:30:09;;;;;;;0.33;0.33;;;;;;;-3.90;100.00;98096.72;5072656;28;20202;-77
2023/01/18 06:32:35;;;;;;;0.00;0.00;;;;;;;-4.12;100.00;98100.81;5072416;28;20230;-76
2023/01/18 06:35:00;;;;;;;0.03;0.03;;;;;;;-3.91;100.00;98104.97;5072724;28;20440;-74
2023/01/18 06:37:26;;;;;;;0.00;0.00;;;;;;;-3.75;100.00;98106.50;5072886;28;20178;-76
2023/01/18 06:39:51;;;;;;;0.73;0.73;;;;;;;-3.75;100.00;98111.03;5072806;28;20174;-75
2023/01/18 06:42:16;;;;;;;1.73;1.70;;;;;;;-3.76;100.00;98122.75;5072973;28;20253;-77
2023/01/18 06:44:42;;;;;;;2.47;0.87;;;;;;;-3.75;100.00;98130.50;5072808;28;20216;-77
2023/01/18 06:47:08;;;;;;;0.30;0.30;;;;;;;-3.70;100.00;98125.13;5072529;28;20195;-78
2023/01/18 06:49:33;;;;;;;0.13;0.13;;;;;;;-3.63;100.00;98130.16;5070965;28;20224;-77
2023/01/18 06:51:58;;;;;;;1.90;1.90;;;;;;;-3.58;100.00;98129.34;5072159;28;20622;-77
2023/01/18 06:54:24;;;;;;;1.23;1.20;;;;;;;-3.52;100.00;98128.22;5071911;28;20277;-76
2023/01/18 06:56:49;;;;;;;0.07;0.07;;;;;;;-3.62;100.00;98137.09;5072066;28;20666;-77
2023/01/18 06:59:15;;;;;;;0.43;0.43;;;;;;;-3.62;100.00;98137.91;5072123;28;20201;-77
2023/01/18 07:01:40;;;;;;;0.00;0.00;;;;;;;-3.53;100.00;98151.44;5072052;28;20523;-77
2023/01/18 07:04:05;;;;;;;0.27;0.27;;;;;;;-3.47;100.00;98149.53;5071761;28;20225;-77
2023/01/18 07:06:31;;;;;;;1.37;1.37;;;;;;;-3.42;100.00;98152.19;5071914;28;20195;-75
2023/01/18 07:08:57;;;;;;;0.00;0.00;;;;;;;-3.40;100.00;98156.19;5071901;28;20727;-77
2023/01/18 07:11:23;;;;;;;0.00;0.00;;;;;;;-3.43;100.00;98163.94;5071712;28;20638;-76
2023/01/18 07:13:48;;;;;;;0.00;0.00;;;;;;;-3.47;100.00;98165.56;5071560;28;20206;-77
2023/01/18 07:16:17;;;;;;;0.00;0.00;;;;;;;-3.69;100.00;98169.41;5071694;28;20909;-76
2023/01/18 07:18:47;;;;;;;0.00;0.00;;;;;;;-3.56;100.00;98178.69;5071722;28;20235;-76
2023/01/18 07:21:14;;;;;;;0.00;0.00;;;;;;;-3.65;100.00;98170.47;5071612;28;20745;-78
2023/01/18 07:23:40;;;;;;;0.00;0.00;;;;;;;-3.69;100.00;98174.75;5071494;28;20662;-77
2023/01/18 07:26:14;;;;;;;0.00;0.00;;;;;;;-3.42;100.00;98184.22;5071407;28;20671;-77
2023/01/18 07:28:39;;;;;;;0.00;0.00;;;;;;;-3.22;100.00;98188.63;5071523;28;20789;-77
2023/01/18 07:31:06;;;;;;;0.00;0.00;;;;;;;-3.09;100.00;98186.13;5070056;28;20473;-75
2023/01/18 07:33:32;;;;;;;0.40;0.40;;;;;;;-3.15;100.00;98200.59;5071111;28;20230;-76
2023/01/18 07:35:58;;;;;;;0.10;0.10;;;;;;;-3.06;100.00;98196.25;5069046;28;20421;-77
2023/01/18 07:38:24;;;;;;;0.13;0.13;;;;;;;-3.10;100.00;98195.22;5070863;28;20428;-75
2023/01/18 07:40:49;;;;;;;1.63;0.60;;;;;;;-3.21;100.00;98200.91;5071359;28;20179;-72
2023/01/18 07:43:16;;;;;;;0.73;0.73;;;;;;;-3.32;100.00;98206.31;5070729;28;20405;-73
2023/01/18 07:45:43;;;;;;;1.13;1.13;;;;;;;-3.41;100.00;98207.16;5071223;28;20476;-78
2023/01/18 07:48:09;;;;;;;1.07;1.07;;;;;;;-3.48;100.00;98209.31;5069843;28;20787;-75
2023/01/18 07:50:34;;;;;;;0.57;0.57;;;;;;;-3.54;100.00;98215.78;5069785;28;20436;-72
2023/01/18 07:53:05;;;;;;;1.53;1.43;;;;;;;-3.61;100.00;98214.22;5071080;28;20827;-74
2023/01/18 07:55:31;;;;;;;5.50;1.23;;;;;;;-3.58;100.00;98233.41;5071053;28;20162;-75
2023/01/18 07:58:00;;;;;;;0.77;0.77;;;;;;;-3.54;100.00;98231.78;5070468;28;20963;-75
2023/01/18 08:00:27;;;;;;;1.10;1.10;;;;;;;-3.55;100.00;98235.53;5070575;28;20424;-74
2023/01/18 08:02:53;;;;;;;2.00;1.90;;;;;;;-3.53;100.00;98238.72;5070458;28;20434;-75
2023/01/18 08:05:22;;;;;;;0.77;0.77;;;;;;;-3.50;100.00;98238.16;5070455;28;20424;-75
2023/01/18 08:07:52;;;;;;;0.00;0.00;;;;;;;-3.43;100.00;98241.34;5070338;28;20948;-76
2023/01/18 08:10:18;;;;;;;0.07;0.07;;;;;;;-3.51;100.00;98244.56;5069089;28;21002;-76
2023/01/18 08:12:43;;;;;;;0.40;0.40;;;;;;;-3.66;100.00;98245.44;5070067;28;20491;-76
2023/01/18 08:15:09;;;;;;;0.00;0.00;;;;;;;-3.77;100.00;98242.00;5070543;28;20174;-75
2023/01/18 08:17:34;;;;;;;0.00;0.00;;;;;;;-3.76;100.00;98245.47;5070376;28;20169;-74
2023/01/18 08:20:00;;;;;;;0.00;0.00;;;;;;;-3.86;100.00;98240.97;5070456;28;20170;-75
2023/01/18 08:22:25;;;;;;;0.13;0.13;;;;;;;-3.81;100.00;98248.16;5070367;28;20174;-74
2023/01/18 08:24:51;;;;;;;0.10;0.10;;;;;;;-3.78;100.00;98236.94;5070084;28;20683;-74
2023/01/18 08:27:16;;;;;;;0.00;0.00;;;;;;;-3.83;100.00;98247.63;5070274;28;20642;-75
2023/01/18 08:29:41;;;;;;;0.00;0.00;;;;;;;-3.88;100.00;98245.78;5070556;28;20619;-75
2023/01/18 08:32:07;;;;;;;0.00;0.00;;;;;;;-3.87;100.00;98246.59;5070274;28;20193;-75
2023/01/18 08:34:32;;;;;;;0.00;0.00;;;;;;;-3.81;100.00;98240.16;5070082;28;20174;-76
2023/01/18 08:36:57;;;;;;;0.00;0.00;;;;;;;-3.74;100.00;98244.16;5070235;28;20642;-75
2023/01/18 08:39:22;;;;;;;0.00;0.00;;;;;;;-3.67;100.00;98255.31;5070243;28;20166;-75
2023/01/18 08:41:48;;;;;;;10.60;7.80;;;;;;;-3.59;100.00;98253.97;5069941;28;20524;-75
2023/01/18 08:44:13;;;;;;;0.00;0.00;;;;;;;-3.60;100.00;98257.69;5069927;28;20166;-75
2023/01/18 08:46:39;;;;;;;0.00;0.00;;;;;;;-3.51;100.00;98268.59;5070753;28;20185;-75
2023/01/18 08:49:05;;;;;;;0.00;0.00;;;;;;;-3.39;100.00;98277.88;5074001;28;20554;-73
2023/01/18 08:51:31;;;;;;;0.00;0.00;;;;;;;-3.26;100.00;98273.03;5072493;28;20186;-73
2023/01/18 08:53:57;;;;;;;0.00;0.00;;;;;;;-3.14;100.00;98271.63;5078443;28;20495;-73
2023/01/18 08:56:23;;;;;;;0.00;0.00;;;;;;;-3.01;100.00;98281.69;5076040;28;20420;-74
2023/01/18 08:58:50;;;;;;;0.60;0.60;;;;;;;-2.65;100.00;98286.00;5073757;28;20428;-72
2023/01/18 09:01:16;;;;;;;0.00;0.00;;;;;;;-2.41;100.00;98286.91;5073654;28;20173;-73
2023/01/18 09:03:42;;;;;;;0.30;0.30;;;;;;;-2.29;100.00;98289.22;5073368;28;20417;-74
2023/01/18 09:06:08;;;;;;;0.07;0.07;;;;;;;-2.14;100.00;98297.91;5073410;28;20179;-73
2023/01/18 09:08:33;;;;;;;0.00;0.00;;;;;;;-2.03;100.00;98309.28;5073800;28;20179;-73
2023/01/18 09:11:04;;;;;;;0.00;0.00;;;;;;;-2.03;100.00;98305.81;5073590;28;20167;-73
2023/01/18 09:13:30;;;;;;;0.43;0.43;;;;;;;-2.36;100.00;98296.75;5071968;28;20213;-73
2023/01/18 09:16:05;;;;;;;0.30;0.30;;;;;;;-2.51;100.00;98309.16;5073546;28;20450;-73
2023/01/18 09:18:30;;;;;;;2.10;0.97;;;;;;;-2.01;100.00;98312.50;5073496;28;20416;-73
2023/01/18 09:20:57;;;;;;;0.83;0.83;;;;;;;-1.83;100.00;98317.13;5073556;28;20417;-73
2023/01/18 09:23:23;;;;;;;0.20;0.20;;;;;;;-1.53;100.00;98320.56;5073100;28;20167;-73
2023/01/18 09:26:06;;;;;;;0.90;0.90;;;;;;;-1.29;100.00;98318.69;5073326;28;20946;-74
2023/01/18 09:28:32;;;;;;;2.77;2.17;;;;;;;-1.12;100.00;98326.25;5073338;28;20646;-73
2023/01/18 09:31:09;;;;;;;4.30;2.57;;;;;;;-1.01;100.00;98332.31;5073610;28;20417;-73
2023/01/18 09:33:35;;;;;;;3.27;2.00;;;;;;;-0.87;100.00;98341.19;5072986;28;21095;-73
2023/01/18 09:36:04;;;;;;;3.80;3.50;;;;;;;-0.82;100.00;98333.09;5073314;28;20554;-73
2023/01/18 09:38:30;;;;;;;0.93;0.93;;;;;;;-0.72;98.97;98345.59;5073240;28;20436;-76
2023/01/18 09:40:57;;;;;;;5.50;1.57;;;;;;;-0.69;97.79;98348.47;5073047;28;20714;-74
2023/01/18 09:43:38;;;;;;;3.47;1.70;;;;;;;-0.65;96.63;98354.84;5073147;28;20417;-72
2023/01/18 09:46:04;;;;;;;1.97;1.77;;;;;;;-0.65;96.20;98357.53;5071842;28;20793;-71
2023/01/18 09:48:39;;;;;;;2.13;2.00;;;;;;;-0.65;96.07;98349.50;5073038;28;20444;-70
2023/01/18 09:51:19;;;;;;;2.97;2.40;;;;;;;-0.63;95.67;98362.59;5072919;28;20181;-71
2023/01/18 09:54:07;;;;;;;4.13;3.77;;;;;;;-0.63;95.12;98355.34;5072600;28;20494;-72
2023/01/18 09:56:45;;;;;;;2.77;2.57;;;;;;;-0.63;95.40;98355.34;5072560;28;20182;-71
2023/01/18 09:59:27;;;;;;;6.57;2.47;;;;;;;-0.58;95.03;98351.78;5071611;28;20754;-78
2023/01/18 10:01:52;;;;;;;1.67;1.53;;;;;;;-0.57;94.90;98353.41;5072811;28;20428;-72
2023/01/18 10:04:28;;;;;;;2.03;1.50;;;;;;;-0.53;94.60;98362.47;5070803;28;20558;-75
2023/01/18 10:07:11;;;;;;;3.93;3.50;;;;;;;-0.52;95.30;98355.22;5070877;28;20491;-76
2023/01/18 10:09:48;;;;;;;4.53;1.77;;;;;;;-0.51;95.06;98362.19;5072772;28;20174;-71
2023/01/18 10:12:22;;;;;;;3.43;3.07;;;;;;;-0.48;94.79;98361.59;5072499;28;20508;-71
2023/01/18 10:14:57;;;;;;;17.60;1.90;;;;;;;-0.44;94.60;98370.63;5072290;28;20423;-72
2023/01/18 10:17:34;;;;;;;1.37;1.27;;;;;;;-0.43;94.92;98367.69;5071128;28;20644;-73
2023/01/18 10:20:00;;;;;;;2.97;2.77;;;;;;;-0.42;95.02;98368.50;5072403;28;20413;-71
2023/01/18 10:22:45;;;;;;;6.10;3.73;;;;;;;-0.45;94.53;98361.00;5072243;28;20432;-71
2023/01/18 10:25:22;;;;;;;2.13;2.03;;;;;;;-0.49;95.35;98368.03;5072345;28;20587;-71
2023/01/18 10:28:04;;;;;;;3.20;2.90;;;;;;;-0.52;96.25;98371.31;5070944;28;20178;-71
2023/01/18 10:30:35;;;;;;;5.07;3.60;;;;;;;-0.54;95.61;98368.91;5072255;28;20174;-71
2023/01/18 10:33:09;;;;;;;12.57;2.53;;;;;;;-0.49;95.58;98373.41;5070681;28;20567;-71
2023/01/18 10:35:48;;;;;;;4.87;3.43;;;;;;;-0.44;95.55;98368.75;5070745;28;20500;-70
2023/01/18 10:38:18;;;;;;;4.40;4.00;;;;;;;-0.37;94.95;98371.88;5070697;28;20420;-72
2023/01/18 10:40:50;;;;;;;2.53;2.33;;;;;;;-0.32;94.77;98376.38;5072058;28;20466;-71
2023/01/18 10:43:19;;;;;;;2.60;2.40;;;;;;;-0.22;95.01;98378.91;5071676;28;20881;-71
2023/01/18 10:45:45;;;;;;;3.53;3.23;;;;;;;-0.16;94.97;98379.63;5070538;28;20421;-71
2023/01/18 10:48:16;;;;;;;3.20;2.63;;;;;;;-0.09;94.99;98386.22;5072175;28;20178;-71
2023/01/18 10:50:45;;;;;;;2.33;2.13;;;;;;;-0.05;94.79;98387.22;5072225;28;20249;-75
2023/01/18 10:53:19;;;;;;;5.43;3.57;;;;;;;-0.01;94.53;98380.16;5070111;28;20472;-72
2023/01/18 10:55:57;;;;;;;8.13;3.37;;;;;;;0.01;93.39;98379.91;5071807;28;20204;-71
2023/01/18 10:58:51;;;;;;;4.43;3.83;;;;;;;0.04;93.39;98389.25;5071901;28;20416;-74
2023/01/18 11:01:27;;;;;;;2.33;2.20;;;;;;;0.10;93.40;98385.38;5073620;28;20421;-80
2023/01/18 11:04:04;;;;;;;7.67;4.33;;;;;;;0.14;93.52;98389.88;5072088;28;20515;-77
2023/01/18 11:06:31;;;;;;;4.20;3.80;;;;;;;0.13;93.23;98392.84;5071370;28;21077;-74
2023/01/18 11:08:56;;;;;;;3.23;2.23;;;;;;;0.05;92.82;98396.22;5071593;28;20181;-72
2023/01/18 11:14:28;;;;;;;7.40;4.00;;;;;;;0.12;93.98;98397.41;5079273;28;20741;-73
2023/01/18 11:17:02;;;;;;;5.40;4.60;;;;;;;0.10;93.30;98393.44;5078182;28;20510;-83
2023/01/18 11:19:29;;;;;;;4.00;3.70;;;;;;;0.12;93.73;98394.75;5079891;28;20272;-85
2023/01/18 11:21:54;;;;;;;2.03;1.93;;;;;;;0.16;93.86;98392.28;5076074;28;20448;-84
2023/01/18 11:24:27;;;;;;;3.33;3.03;;;;;;;0.19;93.70;98399.75;5072920;28;20247;-88
2023/01/18 11:27:01;;;;;;;2.27;1.80;;;;;;;0.18;93.24;98393.59;5072538;28;20239;-88
2023/01/18 11:29:45;;;;;;;1.13;1.03;;;;;;;0.21;93.71;98393.00;5072599;28;20485;-88
2023/01/18 11:32:22;;;;;;;5.53;2.67;;;;;;;0.23;93.33;98401.53;5069829;28;20213;-78
2023/01/18 11:34:50;;;;;;;3.20;2.90;;;;;;;0.26;93.05;98392.88;5071058;28;20539;-78
2023/01/18 11:37:33;;;;;;;3.40;2.97;;;;;;;0.27;91.99;98393.69;5071234;28;20182;-77
2023/01/18 11:39:59;;;;;;;4.83;4.40;;;;;;;0.28;92.07;98395.28;5071327;28;20162;-79
2023/01/18 11:42:24;;;;;;;10.33;3.70;;;;;;;0.31;91.93;98393.91;5071033;28;20262;-75
2023/01/18 11:45:17;;;;;;;2.70;2.50;;;;;;;0.34;91.22;98398.69;5070882;28;20171;-74
2023/01/18 11:48:01;;;;;;;2.53;2.33;;;;;;;0.40;91.15;98401.00;5071060;28;20610;-75
2023/01/18 11:50:48;;;;;;;1.77;1.43;;;;;;;0.41;90.30;98410.63;5070877;28;20201;-76
2023/01/18 11:53:48;;;;;;;4.27;3.97;;;;;;;0.48;90.41;98408.38;5070830;28;20198;-75
2023/01/18 11:56:31;;;;;;;3.77;3.47;;;;;;;0.56;90.30;98412.25;5070330;28;20515;-75
2023/01/18 11:58:56;;;;;;;2.13;1.43;;;;;;;0.62;90.31;98410.31;5069685;28;20312;-76
2023/01/18 12:01:35;;;;;;;7.43;4.13;;;;;;;0.74;90.38;98408.72;5070971;28;20524;-75
2023/01/18 12:04:26;;;;;;;11.60;5.13;;;;;;;0.80;89.48;98407.53;5070682;28;20174;-76
2023/01/18 12:07:28;;;;;;;8.20;6.13;;;;;;;0.84;89.19;98410.41;5069393;28;20650;-74
2023/01/18 12:10:00;;;;;;;7.17;5.00;;;;;;;0.85;89.12;98412.78;5070720;28;20690;-77
2023/01/18 12:12:28;;;;;;;4.47;3.20;;;;;;;0.81;88.67;98414.50;5070342;28;20551;-75
2023/01/18 12:15:32;;;;;;;10.97;2.03;;;;;;;0.87;88.34;98407.94;5069289;28;20182;-75
2023/01/18 12:18:08;;;;;;;4.27;3.97;;;;;;;0.93;88.60;98415.91;5070346;28;20247;-76
2023/01/18 12:20:59;;;;;;;3.87;3.57;;;;;;;1.00;88.04;98414.41;5070631;28;20625;-77
2023/01/18 12:23:49;;;;;;;5.03;4.63;;;;;;;1.03;88.05;98421.88;5070376;28;20167;-76